MONTICARGO VIRTUAL AIRLINES



 METAR AND TAF INFORMATION
METAR FOR LGAV
ADDS - METARS form results

(0159 UTC 22 November 2022)
Data provider http://aviationweather.gov/metar/data/
 
METAR text: LGAV 220120Z 28005KT CAVOK 14/05 Q1013 NOSIG
Conditions at: LGAV (ATHENS/ELEF-VEN , GR) observed 0120 UTC 22 November 2022
Temperature: 14.0°C (57°F)
Dewpoint: 5.0°C (41°F) [RH = 55%]
Pressure (altimeter): 29.91 inches Hg (1013.0 mb)
Winds: from the W (280 degrees) at 6 MPH (5 knots; 2.6 m/s)
Visibility: 6 or more miles (10+ km)
Ceiling: ceiling and visibility are OK
Clouds: unknown
Weather: no significant weather observed at this time

Forecast for: LGAV (ATHENS/ELEF-VEN , GR)
Text: TAF LGAV 212300Z 2200/2224 24015KT 9999 FEW025
Forecast period: 0000 UTC 22 November 2022 to 0000 UTC 23 November 2022
Forecast type: FROM: standard forecast or significant change
Winds: from the WSW (240 degrees) at 17 MPH (15 knots; 7.7 m/s)
Visibility: 6 or more miles (10+ km)
Ceiling: at least 12,000 feet AGL
Clouds: few clouds at 2500 feet AGL
Weather: no significant weather forecast for this period

 AIRPORT MAP

 RUNWAY INFORMATION